Aeroporto :
LOGIN :

Iscrizione | Disclaimer

   EN    FR    IT 

 










Sommario :    VFR   VFR Marginale   IFR   IFR Intensivo   IFR Molto Intensivo
Visibilità : 
Base nubi : 
>= 8 km
>= 3000ft
5 / 8 km
1000 / 3000 ft
1500m / 5 km
500 / 1000 ft
800 / 1500m
200 / 500 ft
< 800m
< 200 ft
Simboli :   Temporali  Nebbia  Neve Forte  Precipitazioni Forti  Vento > 20 kt
SIGMETs :   Varie  Temporali  Ghiacco  Turbolenza  Onda orograficha  Ceneri Vulcaniche






- Altitudine del aeroporto : 357 ft
- Codice IATA : TUF


LFOT - Tours

ULTIMO METAR :
  • 232230Z AUTO 14009KT CAVOK 13/12 Q1005 NOSIG

METARs OBSOLETI :
  • 232200Z AUTO 13009KT CAVOK 13/12 Q1006 NOSIG
  • 232130Z AUTO 12009KT CAVOK 13/12 Q1005 NOSIG
  • 232100Z AUTO 11006KT CAVOK 13/12 Q1005 NOSIG
  • 232030Z AUTO 10006KT CAVOK 13/13 Q1005 NOSIG
  • 232000Z AUTO 08006KT CAVOK 13/12 Q1005 NOSIG

TAF TAF LFOT
Valido dal 23 a 18 ore il 24 a 18 ore UTC


231700Z 2318/2418 08006KT CAVOK
BECMG 2323/2402 18004KT 6000 BKN016
TEMPO 2404/2408 4000 BR BKN008
BECMG 2404/2406 18012KT
TEMPO 2408/2415 18015G27KT -RA BKN012



MetMap, La meteo Aeronautica in un colpo d'occhio ! - Copyright ORBIFLY Dicembre 2007 - Disclaimer

ORBIFLY MET'MAP TEAM :

Programmazione e sviluppo : Alexandra Zaïnal
Concezione e sviluppo : Baudouin d'Aumeries
Co-Programmazione e sviluppo : Marc-Olivier Méhu
Supporto tecnico e logistico : Manuel Goepfert
Aiuto per la traduzione : Arnaldo La Scala

Contatto : metmap@orbifly.com




FONTI E CREDITI :

   NOAA